Time;durP1;ratioP1;P1;durP2;ratioP2;P2;SDS_P1;SDS_P2;PMS_P1;PMS_P2;Temp;Humidity;BMP_temperature;BMP_pressure;BME280_temperature;BME280_humidity;BME280_pressure;Samples;Min_cycle;Max_cycle;Signal;HPM_P1;HPM_P2
2023/05/14 00:01:09;;;;;;;49.00;45.90;;;13.70;99.90;;;;;;4935374;29;20458;-76
2023/05/14 00:03:37;;;;;;;49.53;46.47;;;13.60;99.90;;;;;;4935537;29;20449;-75
2023/05/14 00:06:04;;;;;;;47.77;44.87;;;13.60;99.90;;;;;;4935079;29;20511;-75
2023/05/14 00:08:32;;;;;;;48.00;45.10;;;13.70;99.90;;;;;;4935033;29;20464;-75
2023/05/14 00:10:59;;;;;;;46.10;43.13;;;13.70;99.90;;;;;;4935047;29;20474;-76
2023/05/14 00:13:26;;;;;;;46.33;43.50;;;13.80;99.90;;;;;;4935073;29;20454;-74
2023/05/14 00:15:52;;;;;;;44.20;41.50;;;13.50;99.90;;;;;;4935109;29;20496;-75
2023/05/14 00:18:19;;;;;;;43.33;40.73;;;13.50;99.90;;;;;;4935099;29;20461;-74
2023/05/14 00:20:46;;;;;;;43.70;41.10;;;13.70;99.90;;;;;;4935089;29;20571;-75
2023/05/14 00:23:12;;;;;;;44.60;41.47;;;13.70;99.90;;;;;;4934914;29;20454;-75
2023/05/14 00:25:40;;;;;;;43.30;40.80;;;13.50;99.90;;;;;;4936694;29;20459;-75
2023/05/14 00:28:07;;;;;;;46.33;43.43;;;13.50;99.90;;;;;;4935422;29;20516;-76
2023/05/14 00:30:34;;;;;;;42.87;40.47;;;13.40;99.90;;;;;;4934713;29;20488;-75
2023/05/14 00:33:00;;;;;;;44.53;41.83;;;13.40;99.90;;;;;;4934676;29;20457;-74
2023/05/14 00:35:27;;;;;;;44.47;41.63;;;13.40;99.90;;;;;;4934654;29;20592;-75
2023/05/14 00:37:54;;;;;;;44.00;41.30;;;13.50;99.90;;;;;;4934767;29;20513;-76
2023/05/14 00:40:22;;;;;;;44.00;41.40;;;13.30;99.90;;;;;;4934686;29;20955;-76
2023/05/14 00:42:50;;;;;;;44.90;41.87;;;13.30;99.90;;;;;;4934551;29;20445;-76
2023/05/14 00:45:17;;;;;;;42.60;40.00;;;13.70;99.90;;;;;;4934399;29;20862;-75
2023/05/14 00:47:43;;;;;;;42.80;40.10;;;13.30;99.90;;;;;;4934376;29;20453;-76
2023/05/14 00:50:11;;;;;;;40.73;38.33;;;13.20;99.90;;;;;;4934467;29;20457;-76
2023/05/14 00:52:39;;;;;;;41.20;38.53;;;13.10;99.90;;;;;;4934706;29;20849;-75
2023/05/14 00:55:07;;;;;;;40.80;38.27;;;12.90;99.90;;;;;;4934240;29;20520;-75
2023/05/14 00:57:34;;;;;;;41.60;38.83;;;12.90;99.90;;;;;;4934179;29;20458;-76
2023/05/14 01:00:04;;;;;;;39.10;36.60;;;12.80;99.90;;;;;;4934120;29;20996;-76
2023/05/14 01:02:30;;;;;;;40.47;37.80;;;12.70;99.90;;;;;;4934087;29;20460;-75
2023/05/14 01:04:57;;;;;;;40.27;37.73;;;12.60;99.90;;;;;;4933891;29;20533;-75
2023/05/14 01:07:33;;;;;;;41.97;39.27;;;12.60;99.90;;;;;;4933980;29;20493;-75
2023/05/14 01:10:03;;;;;;;42.33;39.60;;;12.50;99.90;;;;;;4934251;29;20853;-74
2023/05/14 01:12:36;;;;;;;41.73;39.13;;;12.20;99.90;;;;;;4933969;29;20464;-75
2023/05/14 01:15:10;;;;;;;43.13;40.13;;;12.30;99.90;;;;;;4933760;29;20853;-74
2023/05/14 01:17:43;;;;;;;42.07;39.27;;;12.30;99.90;;;;;;4933972;29;20948;-75
2023/05/14 01:20:11;;;;;;;43.20;40.20;;;12.30;99.90;;;;;;4934298;29;20548;-76
2023/05/14 01:22:39;;;;;;;43.57;40.77;;;12.30;99.90;;;;;;4933845;29;20461;-76
2023/05/14 01:25:07;;;;;;;43.23;40.43;;;12.20;99.90;;;;;;4934026;29;20456;-75
2023/05/14 01:27:41;;;;;;;43.23;40.10;;;12.10;99.90;;;;;;4934060;29;20454;-75
2023/05/14 01:30:17;;;;;;;42.03;39.27;;;12.10;99.90;;;;;;4933931;29;20465;-75
2023/05/14 01:32:48;;;;;;;41.53;38.93;;;12.10;99.90;;;;;;4933556;29;20849;-75
2023/05/14 02:09:25;;;;;;;43.30;40.17;;;11.90;99.90;;;;;;5400269;23;20663;-75
2023/05/14 02:11:52;;;;;;;44.33;41.43;;;11.90;99.90;;;;;;4952076;28;20460;-76
2023/05/14 02:14:19;;;;;;;45.17;42.13;;;11.70;99.90;;;;;;4952313;28;20460;-74
2023/05/14 02:16:45;;;;;;;42.63;39.73;;;11.70;99.90;;;;;;4950393;28;20480;-75
2023/05/14 02:19:12;;;;;;;42.73;39.83;;;11.80;99.90;;;;;;4952052;28;20452;-74
2023/05/14 02:21:39;;;;;;;44.43;41.37;;;12.10;99.90;;;;;;4952088;28;20815;-75
2023/05/14 02:24:06;;;;;;;42.40;39.70;;;12.00;99.90;;;;;;4951811;28;20453;-74
2023/05/14 02:26:34;;;;;;;45.90;42.70;;;11.90;99.90;;;;;;4951895;28;20467;-75
2023/05/14 02:29:00;;;;;;;44.57;41.33;;;11.90;99.90;;;;;;4952059;29;20453;-74
2023/05/14 02:31:27;;;;;;;43.53;40.20;;;11.90;99.90;;;;;;4951870;28;20829;-75
2023/05/14 02:33:54;;;;;;;45.23;42.20;;;12.10;99.90;;;;;;4951792;28;20453;-75
2023/05/14 02:36:20;;;;;;;43.67;40.47;;;11.90;99.90;;;;;;4951726;28;20500;-74
2023/05/14 02:38:47;;;;;;;44.00;40.93;;;12.20;99.90;;;;;;4951617;28;20463;-74
2023/05/14 02:41:14;;;;;;;42.60;39.60;;;12.30;99.90;;;;;;4951895;28;20448;-74
2023/05/14 02:43:42;;;;;;;44.60;41.30;;;12.20;99.90;;;;;;4951576;28;20448;-76
2023/05/14 02:46:08;;;;;;;41.50;38.70;;;11.90;99.90;;;;;;4951956;28;20733;-75
2023/05/14 02:48:35;;;;;;;41.47;38.20;;;11.90;99.90;;;;;;4951939;28;20454;-75
2023/05/14 02:51:02;;;;;;;40.67;37.87;;;11.90;99.90;;;;;;4951981;28;20453;-75
2023/05/14 02:53:29;;;;;;;42.80;39.90;;;11.90;99.90;;;;;;4952566;28;20453;-75
2023/05/14 02:55:56;;;;;;;41.70;38.80;;;12.00;99.90;;;;;;4955717;28;20492;-74
2023/05/14 02:58:22;;;;;;;39.63;36.73;;;12.10;99.90;;;;;;4955687;28;20460;-76
2023/05/14 03:00:51;;;;;;;38.23;35.73;;;12.00;99.90;;;;;;4955715;28;20451;-75
2023/05/14 03:03:18;;;;;;;39.83;37.23;;;12.10;99.90;;;;;;4955796;28;20464;-76
2023/05/14 03:05:45;;;;;;;39.93;37.03;;;12.20;99.90;;;;;;4955696;28;20459;-74
2023/05/14 03:08:12;;;;;;;40.00;37.37;;;12.10;99.90;;;;;;4943533;28;20473;-73
2023/05/14 03:10:39;;;;;;;40.77;38.13;;;12.10;99.90;;;;;;4949275;28;21208;-73
2023/05/14 03:13:05;;;;;;;40.17;37.47;;;12.20;99.90;;;;;;4955614;28;20950;-73
2023/05/14 03:15:32;;;;;;;37.10;34.80;;;12.10;99.90;;;;;;4955471;28;20480;-74
2023/05/14 03:18:00;;;;;;;38.17;35.77;;;12.00;99.90;;;;;;4955485;28;20456;-73
2023/05/14 03:20:27;;;;;;;37.63;35.07;;;12.20;99.90;;;;;;4955272;28;20456;-74
2023/05/14 03:22:54;;;;;;;36.77;34.57;;;12.20;99.90;;;;;;4955371;28;20460;-73
2023/05/14 03:25:21;;;;;;;37.20;34.80;;;12.10;99.90;;;;;;4955230;28;20464;-75
2023/05/14 03:27:48;;;;;;;36.90;34.47;;;12.20;99.90;;;;;;4955360;28;20451;-75
2023/05/14 03:30:15;;;;;;;35.43;33.23;;;12.20;99.90;;;;;;4955496;28;20491;-75
2023/05/14 03:32:42;;;;;;;34.87;32.80;;;12.20;99.90;;;;;;4955232;28;20449;-75
2023/05/14 03:35:10;;;;;;;33.33;31.40;;;12.20;99.90;;;;;;4954961;28;20515;-75
2023/05/14 03:37:37;;;;;;;34.03;32.00;;;12.10;99.90;;;;;;4955057;28;20453;-75
2023/05/14 03:40:05;;;;;;;32.00;30.07;;;12.10;99.90;;;;;;4955059;28;20461;-74
2023/05/14 03:42:31;;;;;;;33.73;31.33;;;12.10;99.90;;;;;;4955297;28;20942;-74
2023/05/14 03:44:58;;;;;;;31.97;30.07;;;12.10;99.90;;;;;;4955013;28;20826;-75
2023/05/14 03:47:25;;;;;;;32.17;30.27;;;12.20;99.90;;;;;;4954741;28;20464;-74
2023/05/14 03:49:51;;;;;;;32.27;30.30;;;12.20;99.90;;;;;;4955022;28;21158;-74
2023/05/14 03:52:19;;;;;;;31.07;29.27;;;12.20;99.90;;;;;;4954814;28;20466;-75
2023/05/14 03:54:46;;;;;;;30.33;28.50;;;12.20;99.90;;;;;;4954670;28;20456;-74
2023/05/14 03:57:13;;;;;;;29.53;27.80;;;12.20;99.90;;;;;;4954851;28;20460;-73
2023/05/14 03:59:40;;;;;;;29.10;27.40;;;12.20;99.90;;;;;;4954811;28;20831;-75
2023/05/14 04:02:06;;;;;;;28.00;26.40;;;12.20;99.90;;;;;;4954687;28;20467;-76
2023/05/14 04:04:33;;;;;;;26.93;25.33;;;12.20;99.90;;;;;;4954204;28;20471;-74
2023/05/14 04:07:00;;;;;;;29.43;27.50;;;12.10;99.90;;;;;;4954625;28;20460;-74
2023/05/14 04:09:28;;;;;;;27.77;25.97;;;12.30;99.90;;;;;;4954464;28;20845;-73
2023/05/14 04:11:55;;;;;;;28.20;26.50;;;12.30;99.90;;;;;;4954613;28;20815;-74
2023/05/14 04:14:21;;;;;;;26.80;25.00;;;12.50;99.90;;;;;;4954510;28;20456;-74
2023/05/14 04:16:48;;;;;;;29.20;27.30;;;12.30;99.90;;;;;;4954559;28;20507;-74
2023/05/14 04:19:15;;;;;;;27.97;26.23;;;12.60;99.90;;;;;;4954576;28;20456;-75
2023/05/14 04:21:41;;;;;;;26.37;24.77;;;12.50;99.90;;;;;;4954480;28;20934;-75
2023/05/14 04:24:08;;;;;;;27.83;26.13;;;12.80;99.90;;;;;;4954548;28;20457;-76
2023/05/14 04:26:36;;;;;;;27.07;25.63;;;12.60;99.90;;;;;;4954269;28;20923;-76
2023/05/14 04:29:03;;;;;;;27.77;26.07;;;12.70;99.90;;;;;;4954301;28;20460;-75
2023/05/14 04:31:30;;;;;;;28.23;26.43;;;12.60;99.90;;;;;;4954333;28;20463;-74
2023/05/14 04:33:57;;;;;;;26.00;24.40;;;13.00;99.90;;;;;;4954285;28;20464;-75
2023/05/14 04:36:24;;;;;;;27.03;25.30;;;12.90;99.90;;;;;;4954207;28;21096;-74
2023/05/14 04:38:50;;;;;;;27.13;25.43;;;12.80;99.90;;;;;;4954117;28;20563;-74
2023/05/14 04:41:17;;;;;;;26.47;24.90;;;13.00;99.90;;;;;;4954301;28;20455;-74
2023/05/14 04:43:46;;;;;;;26.33;24.60;;;13.10;99.90;;;;;;4954421;28;20954;-75
2023/05/14 04:46:13;;;;;;;25.27;23.77;;;12.60;99.90;;;;;;4954060;28;20456;-74
2023/05/14 04:48:40;;;;;;;25.90;24.40;;;12.90;99.90;;;;;;4954017;28;20535;-74
2023/05/14 04:51:06;;;;;;;26.90;24.93;;;12.70;99.90;;;;;;4953999;28;20533;-74
2023/05/14 04:53:33;;;;;;;24.93;23.37;;;12.70;99.90;;;;;;4953804;28;20460;-74
2023/05/14 04:56:00;;;;;;;25.13;23.53;;;;;;;;;;4953864;28;20495;-73
2023/05/14 04:58:28;;;;;;;24.40;22.93;;;12.70;99.90;;;;;;4953820;28;20452;-74
2023/05/14 05:00:56;;;;;;;24.50;22.70;;;12.40;99.90;;;;;;4953758;28;20460;-74
2023/05/14 05:03:22;;;;;;;25.10;23.30;;;12.70;99.90;;;;;;4953656;28;20449;-74
2023/05/14 05:05:49;;;;;;;24.30;22.33;;;12.80;99.90;;;;;;4953554;28;20455;-75
2023/05/14 05:08:16;;;;;;;24.57;23.17;;;12.60;99.90;;;;;;4953582;28;20572;-76
2023/05/14 05:10:42;;;;;;;22.60;21.40;;;13.00;99.90;;;;;;4953558;28;20507;-76
2023/05/14 05:13:09;;;;;;;23.77;21.87;;;12.70;99.90;;;;;;4953673;28;20513;-77
2023/05/14 05:15:36;;;;;;;24.53;23.03;;;12.90;99.90;;;;;;4952937;28;20492;-75
2023/05/14 05:18:05;;;;;;;23.03;21.73;;;12.80;99.90;;;;;;4953105;28;20452;-76
2023/05/14 05:20:31;;;;;;;24.10;22.70;;;12.70;99.90;;;;;;4953477;28;20457;-76
2023/05/14 05:22:58;;;;;;;23.70;22.20;;;12.60;99.90;;;;;;4953473;28;20551;-75
2023/05/14 05:25:25;;;;;;;22.50;21.00;;;13.20;99.90;;;;;;4953231;28;20461;-75
2023/05/14 05:27:51;;;;;;;24.53;23.03;;;12.90;99.90;;;;;;4953086;28;20456;-75
2023/05/14 05:30:18;;;;;;;24.00;22.50;;;12.90;99.90;;;;;;4953257;28;20529;-76
2023/05/14 05:32:45;;;;;;;23.40;21.90;;;13.20;99.90;;;;;;4953292;28;20547;-76
2023/05/14 05:35:13;;;;;;;23.13;21.53;;;12.90;99.90;;;;;;4953072;28;20904;-76
2023/05/14 05:37:40;;;;;;;23.40;21.77;;;13.10;99.90;;;;;;4952499;28;20456;-75
2023/05/14 05:40:09;;;;;;;24.37;22.30;;;12.90;99.90;;;;;;4952935;28;20583;-76
2023/05/14 05:42:35;;;;;;;23.40;22.00;;;13.00;99.90;;;;;;4952930;28;20456;-74
2023/05/14 05:45:02;;;;;;;23.23;21.63;;;13.00;99.90;;;;;;4952986;28;20448;-76
2023/05/14 05:47:29;;;;;;;23.00;21.57;;;13.40;99.90;;;;;;4952941;28;20467;-75
2023/05/14 05:49:56;;;;;;;23.27;21.87;;;13.30;99.90;;;;;;4953039;28;21094;-75
2023/05/14 05:52:24;;;;;;;22.30;20.90;;;13.20;99.90;;;;;;4952843;28;20448;-75
2023/05/14 05:54:50;;;;;;;22.00;20.80;;;13.00;99.90;;;;;;4952646;28;21065;-75
2023/05/14 05:57:17;;;;;;;21.80;20.50;;;13.50;99.90;;;;;;4953032;28;20484;-76
2023/05/14 05:59:44;;;;;;;21.83;20.57;;;13.20;99.90;;;;;;4952845;28;20457;-75
2023/05/14 06:02:10;;;;;;;23.40;21.73;;;13.20;99.90;;;;;;4952656;29;20465;-76
2023/05/14 06:04:37;;;;;;;22.40;20.90;;;13.40;99.90;;;;;;4952515;28;20983;-75
2023/05/14 06:07:04;;;;;;;21.57;20.27;;;13.20;99.90;;;;;;4952574;28;20473;-76
2023/05/14 06:09:32;;;;;;;24.00;22.30;;;13.30;99.90;;;;;;4952393;28;20488;-75
2023/05/14 06:11:59;;;;;;;22.13;20.70;;;13.40;99.90;;;;;;4960687;28;20486;-75
2023/05/14 06:14:26;;;;;;;21.67;20.33;;;14.00;99.90;;;;;;4971475;28;20478;-74
2023/05/14 06:16:52;;;;;;;21.33;19.80;;;13.80;99.90;;;;;;4971494;28;21004;-75
2023/05/14 06:19:19;;;;;;;22.07;20.53;;;13.80;99.90;;;;;;4971498;28;20463;-74
2023/05/14 06:21:46;;;;;;;20.63;19.30;;;14.00;99.90;;;;;;4971669;28;20451;-75
2023/05/14 06:24:12;;;;;;;27.97;20.50;;;14.30;99.90;;;;;;4971458;28;20823;-75
2023/05/14 06:26:40;;;;;;;21.40;20.20;;;14.40;99.90;;;;;;4971479;28;20446;-76
2023/05/14 06:29:07;;;;;;;20.30;19.10;;;14.90;99.90;;;;;;4971421;28;20463;-76
2023/05/14 06:31:34;;;;;;;20.23;18.93;;;15.10;99.90;;;;;;4971500;28;20510;-75
2023/05/14 06:34:01;;;;;;;20.30;18.80;;;14.60;99.90;;;;;;4971602;28;20463;-75
2023/05/14 06:36:27;;;;;;;20.70;18.97;;;14.90;99.90;;;;;;4971441;28;20510;-76
2023/05/14 06:38:54;;;;;;;19.57;18.37;;;14.70;99.90;;;;;;4971335;28;20444;-76
2023/05/14 06:41:21;;;;;;;19.77;18.57;;;14.60;99.90;;;;;;4971460;28;20462;-75
2023/05/14 06:43:49;;;;;;;20.83;19.63;;;14.80;99.90;;;;;;4971652;28;20455;-74
2023/05/14 06:46:16;;;;;;;20.60;19.40;;;14.70;99.90;;;;;;4971543;28;20452;-75
2023/05/14 06:48:43;;;;;;;19.07;17.93;;;15.10;99.90;;;;;;4971330;28;20474;-74
2023/05/14 06:51:10;;;;;;;19.87;18.67;;;15.30;99.90;;;;;;4971285;28;20459;-74
2023/05/14 06:53:36;;;;;;;19.47;18.20;;;15.30;99.90;;;;;;4971414;28;20992;-75
2023/05/14 06:56:03;;;;;;;19.20;18.00;;;15.70;99.90;;;;;;4971333;28;20498;-75
2023/05/14 06:58:30;;;;;;;20.63;19.30;;;15.90;99.90;;;;;;4971388;28;20462;-75
2023/05/14 07:00:58;;;;;;;18.93;17.73;;;15.90;99.90;;;;;;4971110;28;20456;-75
2023/05/14 07:03:25;;;;;;;19.70;18.47;;;16.10;99.90;;;;;;4971170;28;20451;-76
2023/05/14 07:05:51;;;;;;;18.70;17.60;;;16.40;99.90;;;;;;4971216;28;20475;-76
2023/05/14 07:08:18;;;;;;;18.70;17.50;;;16.50;99.90;;;;;;4971044;28;20471;-74
2023/05/14 07:10:45;;;;;;;19.30;17.93;;;16.50;99.90;;;;;;4971096;28;20985;-75
2023/05/14 07:13:11;;;;;;;18.07;16.97;;;16.50;99.90;;;;;;4971065;28;20809;-75
2023/05/14 07:15:38;;;;;;;19.80;18.27;;;18.80;99.90;;;;;;4971048;28;20946;-76
2023/05/14 07:18:06;;;;;;;18.07;16.87;;;16.80;99.90;;;;;;4971101;28;20490;-76
2023/05/14 07:21:05;;;;;;;18.80;17.70;;;17.20;99.90;;;;;;4971190;28;20455;-74
2023/05/14 07:23:31;;;;;;;20.63;19.33;;;16.90;99.90;;;;;;4889669;29;21002;-73
2023/05/14 07:25:58;;;;;;;20.53;19.13;;;16.60;99.90;;;;;;4953045;28;20452;-74
2023/05/14 07:28:25;;;;;;;19.50;18.20;;;16.40;99.90;;;;;;4970686;28;20454;-75
2023/05/14 07:30:51;;;;;;;19.53;18.43;;;16.80;99.90;;;;;;4970388;28;20447;-75
2023/05/14 07:33:20;;;;;;;19.20;18.10;;;17.10;99.90;;;;;;4970876;28;20969;-76
2023/05/14 07:35:46;;;;;;;19.57;18.50;;;17.90;99.90;;;;;;4971064;28;20455;-76
2023/05/14 07:38:13;;;;;;;17.40;16.50;;;18.60;99.90;;;;;;4970760;28;20519;-75
2023/05/14 07:40:40;;;;;;;19.43;18.23;;;18.90;99.90;;;;;;4973185;28;20462;-75
2023/05/14 07:43:07;;;;;;;19.97;18.57;;;18.60;99.90;;;;;;4974366;28;20460;-75
2023/05/14 07:45:33;;;;;;;20.47;19.33;;;18.70;99.90;;;;;;4974164;28;20455;-76
2023/05/14 07:48:00;;;;;;;19.90;18.70;;;19.10;99.90;;;;;;4974361;28;20452;-75
2023/05/14 07:50:28;;;;;;;19.93;18.83;;;19.40;99.90;;;;;;4974304;28;20853;-76
2023/05/14 07:52:55;;;;;;;19.30;18.20;;;19.30;99.90;;;;;;4974014;28;20456;-74
2023/05/14 07:55:21;;;;;;;19.50;18.37;;;19.50;99.90;;;;;;4974268;28;20462;-75
2023/05/14 07:57:48;;;;;;;17.97;17.07;;;19.50;99.90;;;;;;4974119;28;20487;-75
2023/05/14 08:00:15;;;;;;;19.37;18.27;;;19.60;99.90;;;;;;4974147;28;20452;-74
2023/05/14 08:02:42;;;;;;;18.43;17.40;;;19.30;99.90;;;;;;4973994;28;20467;-74
2023/05/14 08:05:09;;;;;;;18.50;17.50;;;18.90;99.90;;;;;;4973879;28;20459;-74
2023/05/14 08:07:37;;;;;;;18.27;17.10;;;18.90;99.90;;;;;;4973744;28;20480;-76
2023/05/14 08:10:06;;;;;;;19.83;18.53;;;19.70;99.90;;;;;;4973672;28;20502;-75
2023/05/14 08:12:33;;;;;;;18.63;17.23;;;20.30;99.90;;;;;;4973971;28;20456;-76
2023/05/14 08:14:59;;;;;;;20.17;18.97;;;21.20;99.90;;;;;;4974550;28;20463;-76
2023/05/14 08:17:26;;;;;;;19.30;18.10;;;21.40;99.90;;;;;;4973859;28;21031;-76
2023/05/14 08:19:53;;;;;;;17.30;16.20;;;21.60;99.90;;;;;;4973909;28;20459;-77
2023/05/14 08:22:20;;;;;;;19.83;18.70;;;21.50;99.90;;;;;;4973605;28;20448;-75
2023/05/14 08:24:48;;;;;;;18.73;17.73;;;21.50;99.90;;;;;;4972023;28;20463;-76
2023/05/14 08:27:15;;;;;;;18.47;17.47;;;21.70;99.40;;;;;;4973772;28;20593;-76
2023/05/14 08:29:42;;;;;;;18.57;17.47;;;21.70;99.90;;;;;;4973772;28;20456;-76
2023/05/14 08:32:09;;;;;;;19.60;18.50;;;21.90;98.40;;;;;;4973680;28;20979;-75
2023/05/14 08:34:35;;;;;;;19.70;18.60;;;21.90;99.30;;;;;;4973970;28;20463;-75
2023/05/14 08:37:02;;;;;;;19.20;18.10;;;21.50;99.60;;;;;;4954425;28;20492;-77
2023/05/14 08:39:29;;;;;;;20.30;19.03;;;21.60;99.90;;;;;;4954454;28;20536;-78
2023/05/14 08:41:58;;;;;;;19.10;17.70;;;22.10;99.80;;;;;;4954371;28;20456;-77
2023/05/14 08:44:32;;;;;;;19.40;18.40;;;22.50;99.30;;;;;;4954218;28;20449;-77
2023/05/14 08:46:59;;;;;;;19.13;18.00;;;22.60;97.10;;;;;;4954625;29;20448;-78
2023/05/14 08:49:37;;;;;;;18.70;17.70;;;22.90;96.90;;;;;;4953864;29;20455;-79
2023/05/14 08:52:04;;;;;;;19.90;18.80;;;22.40;97.20;;;;;;4953764;28;20993;-78
2023/05/14 08:54:31;;;;;;;18.50;17.40;;;22.70;98.10;;;;;;4954014;28;20461;-79
2023/05/14 08:56:59;;;;;;;20.53;19.33;;;23.30;97.90;;;;;;4952093;28;20500;-79
2023/05/14 08:59:26;;;;;;;20.47;18.67;;;24.20;95.70;;;;;;4967946;28;20448;-78
2023/05/14 09:01:55;;;;;;;18.07;17.17;;;24.30;96.20;;;;;;4972660;28;20785;-79
2023/05/14 09:04:23;;;;;;;21.63;19.77;;;24.70;93.70;;;;;;4972927;28;20462;-80
2023/05/14 09:06:52;;;;;;;19.73;18.63;;;24.50;92.40;;;;;;4970973;28;20444;-80
2023/05/14 09:09:21;;;;;;;20.27;18.83;;;24.30;93.20;;;;;;4972499;28;20943;-81
2023/05/14 09:11:48;;;;;;;19.33;18.33;;;24.40;93.00;;;;;;4962380;28;21005;-79
2023/05/14 09:14:17;;;;;;;20.90;19.70;;;25.00;91.00;;;;;;4972810;28;20452;-80
2023/05/14 09:16:45;;;;;;;21.27;20.17;;;25.60;90.90;;;;;;4972471;28;20487;-80
2023/05/14 09:19:13;;;;;;;20.87;19.57;;;26.00;88.80;;;;;;4972613;28;20444;-81
2023/05/14 09:21:40;;;;;;;19.80;18.80;;;26.50;86.30;;;;;;4972354;28;20451;-81
2023/05/14 09:24:07;;;;;;;19.20;18.20;;;26.50;86.00;;;;;;4971865;28;20856;-81
2023/05/14 09:26:35;;;;;;;19.87;18.57;;;26.50;84.00;;;;;;4971965;28;20444;-82
2023/05/14 09:29:03;;;;;;;20.43;19.33;;;26.60;83.80;;;;;;4972202;28;20467;-85
2023/05/14 09:31:33;;;;;;;20.30;19.20;;;25.80;84.00;;;;;;4967229;28;20942;-84
2023/05/14 09:34:00;;;;;;;20.07;18.93;;;24.30;87.10;;;;;;4971143;28;20444;-80
2023/05/14 09:36:28;;;;;;;20.70;19.27;;;24.40;90.20;;;;;;4966736;28;20463;-82
2023/05/14 09:38:56;;;;;;;20.53;19.33;;;24.30;89.00;;;;;;4972085;28;20491;-86
2023/05/14 09:41:24;;;;;;;18.40;17.30;;;24.10;89.50;;;;;;4973277;28;20455;-84
2023/05/14 09:43:51;;;;;;;19.30;18.27;;;22.90;90.90;;;;;;4972708;28;20487;-85
2023/05/14 09:46:18;;;;;;;19.53;18.23;;;22.20;92.20;;;;;;4972249;28;20444;-83
2023/05/14 09:48:46;;;;;;;18.70;17.27;;;22.70;92.10;;;;;;4972099;28;20458;-85
2023/05/14 09:51:16;;;;;;;17.00;16.20;;;22.60;92.10;;;;;;4972449;28;20525;-85
2023/05/14 09:53:43;;;;;;;18.83;17.73;;;22.00;93.00;;;;;;4973195;28;20939;-85
2023/05/14 09:56:10;;;;;;;19.17;18.03;;;21.60;93.70;;;;;;4973311;28;20444;-87
2023/05/14 09:58:37;;;;;;;19.07;17.90;;;20.70;96.20;;;;;;4973193;28;20487;-85
2023/05/14 10:01:05;;;;;;;19.20;18.03;;;20.70;96.70;;;;;;4972749;28;20443;-87
2023/05/14 10:03:32;;;;;;;18.10;17.00;;;20.50;97.20;;;;;;4972424;28;20455;-87
2023/05/14 10:06:04;;;;;;;17.63;16.63;;;20.40;97.60;;;;;;4973534;28;20444;-87
2023/05/14 10:08:35;;;;;;;17.93;16.77;;;20.40;98.30;;;;;;4969069;28;20942;-86
2023/05/14 10:11:06;;;;;;;19.50;18.20;;;20.00;98.50;;;;;;4973316;28;20487;-86
2023/05/14 10:13:39;;;;;;;18.17;17.07;;;20.00;99.20;;;;;;4968941;28;20447;-85
2023/05/14 10:16:11;;;;;;;18.90;17.80;;;20.00;99.00;;;;;;4972836;28;20443;-87
2023/05/14 10:18:44;;;;;;;17.00;15.90;;;20.10;98.60;;;;;;4972545;28;21121;-87
2023/05/14 10:21:15;;;;;;;16.80;15.70;;;20.30;97.80;;;;;;4968961;28;20443;-84
2023/05/14 10:23:42;;;;;;;18.90;17.70;;;20.10;98.40;;;;;;4972806;28;20539;-85
2023/05/14 10:26:10;;;;;;;16.20;15.30;;;20.20;98.00;;;;;;4969777;28;20463;-82
2023/05/14 10:28:37;;;;;;;17.30;16.30;;;20.80;97.80;;;;;;4971259;28;20782;-81
2023/05/14 10:31:04;;;;;;;16.63;15.57;;;21.20;97.20;;;;;;4971051;28;20440;-83
2023/05/14 10:33:45;;;;;;;17.30;16.10;;;21.60;96.20;;;;;;4971670;28;20531;-82
2023/05/14 10:36:13;;;;;;;17.87;16.97;;;22.20;95.50;;;;;;4967130;28;20451;-82
2023/05/14 10:38:40;;;;;;;18.73;17.53;;;22.80;94.10;;;;;;4970621;28;20487;-79
2023/05/14 10:41:10;;;;;;;17.97;17.07;;;23.10;93.90;;;;;;4971406;28;20455;-81
2023/05/14 10:43:38;;;;;;;16.83;16.03;;;23.50;93.30;;;;;;4970312;28;20447;-81
2023/05/14 10:46:06;;;;;;;17.90;16.90;;;23.80;91.70;;;;;;4971859;28;20458;-82
2023/05/14 10:48:34;;;;;;;17.83;16.87;;;23.80;91.50;;;;;;4971834;28;20538;-82
2023/05/14 10:51:01;;;;;;;18.60;17.43;;;23.50;91.60;;;;;;4966458;28;20934;-82
2023/05/14 10:53:34;;;;;;;16.40;15.47;;;23.20;92.40;;;;;;4971326;28;20447;-81
2023/05/14 10:56:06;;;;;;;17.67;16.67;;;23.30;92.30;;;;;;4967241;28;20463;-84
2023/05/14 10:58:36;;;;;;;18.37;17.30;;;22.80;92.50;;;;;;4971140;28;20538;-81
2023/05/14 11:01:04;;;;;;;16.30;15.40;;;22.80;92.70;;;;;;4966505;28;20515;-82
2023/05/14 11:03:32;;;;;;;16.00;15.00;;;22.80;93.20;;;;;;4971202;28;20877;-82
2023/05/14 11:06:01;;;;;;;17.50;16.60;;;22.30;93.50;;;;;;4971625;28;20456;-80
2023/05/14 11:08:28;;;;;;;16.57;15.57;;;22.20;93.60;;;;;;4971754;28;20470;-81
2023/05/14 11:10:57;;;;;;;16.63;15.77;;;22.60;94.00;;;;;;4972242;28;20570;-83
2023/05/14 11:13:25;;;;;;;17.03;16.10;;;22.90;93.50;;;;;;4973734;28;20539;-83
2023/05/14 11:15:53;;;;;;;18.20;17.20;;;23.40;92.80;;;;;;4974230;28;20456;-83
2023/05/14 11:18:29;;;;;;;17.30;16.40;;;24.50;91.60;;;;;;4975840;28;20490;-82
2023/05/14 11:20:58;;;;;;;17.10;16.27;;;25.90;90.30;;;;;;4979233;28;20455;-83
2023/05/14 11:23:25;;;;;;;16.10;15.30;;;25.80;88.50;;;;;;4981632;28;20855;-85
2023/05/14 11:25:53;;;;;;;17.20;16.20;;;25.60;89.10;;;;;;4981214;28;20440;-86
2023/05/14 11:28:22;;;;;;;15.80;14.97;;;25.50;88.70;;;;;;4972357;28;20502;-81
2023/05/14 11:30:49;;;;;;;17.67;16.80;;;25.60;88.10;;;;;;4978563;28;20459;-82
2023/05/14 11:33:16;;;;;;;16.80;15.97;;;25.60;86.20;;;;;;4978596;28;20450;-84
2023/05/14 11:35:44;;;;;;;16.57;15.77;;;26.00;85.20;;;;;;4978923;28;20451;-84
2023/05/14 11:38:14;;;;;;;15.70;14.90;;;27.00;83.20;;;;;;4976621;28;20491;-82
2023/05/14 11:40:41;;;;;;;17.10;16.00;;;27.20;79.90;;;;;;4975252;28;20443;-82
2023/05/14 11:43:08;;;;;;;17.40;16.40;;;26.10;82.20;;;;;;4977533;28;20933;-85
2023/05/14 11:45:36;;;;;;;15.47;14.60;;;24.30;84.70;;;;;;4979840;28;20447;-84
2023/05/14 11:48:11;;;;;;;14.60;13.90;;;24.20;87.40;;;;;;4978006;28;20448;-84
2023/05/14 11:50:39;;;;;;;15.37;14.57;;;24.60;84.20;;;;;;4973925;28;20451;-82
2023/05/14 11:53:06;;;;;;;16.30;15.50;;;24.20;86.10;;;;;;4973509;28;20969;-84
2023/05/14 11:55:34;;;;;;;17.00;15.90;;;24.90;85.30;;;;;;4975954;28;20455;-83
2023/05/14 11:58:01;;;;;;;15.90;15.20;;;26.30;82.40;;;;;;4968254;28;20487;-79
2023/05/14 12:00:28;;;;;;;16.37;15.47;;;26.00;79.80;;;;;;4954814;28;20456;-86
2023/05/14 12:02:56;;;;;;;15.07;14.37;;;24.90;83.40;;;;;;4944203;29;20453;-83
2023/05/14 12:05:23;;;;;;;16.27;15.47;;;23.90;86.60;;;;;;4942978;28;20457;-83
2023/05/14 12:07:50;;;;;;;16.50;15.50;;;23.60;89.30;;;;;;4944867;28;20467;-82
2023/05/14 12:10:17;;;;;;;14.87;14.17;;;23.30;89.20;;;;;;4948934;28;20899;-82
2023/05/14 12:12:47;;;;;;;15.63;14.93;;;23.30;89.50;;;;;;4950981;29;20448;-84
2023/05/14 12:15:15;;;;;;;15.07;14.27;;;23.50;89.60;;;;;;4944185;28;20448;-83
2023/05/14 12:17:42;;;;;;;15.67;14.97;;;24.00;87.60;;;;;;4949389;28;20501;-82
2023/05/14 12:20:11;;;;;;;14.60;13.90;;;25.10;86.70;;;;;;4951112;28;20447;-87
2023/05/14 12:22:39;;;;;;;15.20;14.60;;;24.80;85.00;;;;;;4949628;29;20457;-84
2023/05/14 12:25:12;;;;;;;14.23;13.53;;;23.70;86.60;;;;;;4952441;29;20478;-86
2023/05/14 12:27:39;;;;;;;14.60;13.80;;;22.90;88.10;;;;;;4952582;28;20486;-86
2023/05/14 12:30:08;;;;;;;14.10;13.50;;;22.40;89.20;;;;;;4952580;28;20476;-87
2023/05/14 12:32:35;;;;;;;14.40;13.70;;;22.30;88.20;;;;;;4950223;29;20458;-85
2023/05/14 12:35:02;;;;;;;14.40;13.50;;;22.00;88.30;;;;;;4945260;29;20825;-88
2023/05/14 12:37:30;;;;;;;14.07;13.37;;;21.90;89.80;;;;;;4951419;28;20600;-87
2023/05/14 12:39:57;;;;;;;14.67;13.97;;;21.60;90.80;;;;;;4949841;28;20453;-84
2023/05/14 12:42:23;;;;;;;14.70;13.90;;;21.50;91.30;;;;;;4944875;28;20452;-81
2023/05/14 12:44:50;;;;;;;14.00;13.40;;;21.70;91.70;;;;;;4944856;28;20445;-86
2023/05/14 12:47:17;;;;;;;14.23;13.53;;;21.80;91.00;;;;;;4944660;28;20476;-81
2023/05/14 12:49:44;;;;;;;15.00;14.30;;;22.00;90.90;;;;;;4948519;29;20453;-84
2023/05/14 12:52:11;;;;;;;15.00;14.23;;;22.70;90.00;;;;;;4945813;28;20492;-83
2023/05/14 12:54:42;;;;;;;14.00;13.33;;;23.70;88.90;;;;;;4951043;28;20612;-84
2023/05/14 12:57:08;;;;;;;15.17;14.30;;;24.20;84.80;;;;;;4947614;28;21136;-83
2023/05/14 12:59:35;;;;;;;14.17;13.37;;;24.20;85.60;;;;;;4945646;28;20840;-82
2023/05/14 13:02:02;;;;;;;13.70;13.10;;;25.00;85.30;;;;;;4949435;29;20445;-85
2023/05/14 13:04:28;;;;;;;14.27;13.57;;;24.30;84.00;;;;;;4948533;28;20471;-86